TimeEDT,TemperatureF,Dew PointF,Humidity,Sea Level PressureIn,VisibilityMPH,Wind Direction,Wind SpeedMPH,Gust SpeedMPH,PrecipitationIn,Events,Conditions,WindDirDegrees,DateUTC
12:14 AM,40.3,38.7,94,29.98,10.0,WNW,3.5,-,N/A,,Overcast,300,2013-04-09 04:14:00
12:34 AM,40.3,38.8,95,30.00,10.0,Calm,Calm,-,N/A,,Overcast,0,2013-04-09 04:34:00
12:54 AM,39.9,38.7,95,30.00,10.0,Calm,Calm,-,N/A,,Overcast,0,2013-04-09 04:54:00
1:13 AM,40.3,38.8,95,30.01,10.0,Calm,Calm,-,N/A,,Overcast,0,2013-04-09 05:13:00
1:34 AM,39.7,38.7,96,30.02,10.0,Calm,Calm,-,N/A,,Overcast,0,2013-04-09 05:34:00
1:53 AM,39.0,38.1,97,30.03,10.0,Calm,Calm,-,N/A,,Overcast,0,2013-04-09 05:53:00
2:13 AM,39.2,38.3,97,30.03,10.0,Calm,Calm,-,N/A,,Overcast,0,2013-04-09 06:13:00
2:34 AM,38.1,37.8,99,30.03,0.8,Calm,Calm,-,N/A,,Overcast,0,2013-04-09 06:34:00
2:53 AM,36.7,36.5,99,30.03,1.2,Calm,Calm,-,N/A,,Overcast,0,2013-04-09 06:53:00
3:14 AM,36.0,36.0,100,30.05,1.0,Calm,Calm,-,N/A,,Overcast,0,2013-04-09 07:14:00
3:34 AM,36.9,36.7,99,30.05,4.0,Calm,Calm,-,N/A,,Overcast,0,2013-04-09 07:34:00
3:53 AM,36.9,36.7,99,30.06,5.0,Calm,Calm,-,N/A,,Overcast,0,2013-04-09 07:53:00
4:14 AM,37.4,37.4,100,30.06,5.0,Calm,Calm,-,N/A,,Overcast,0,2013-04-09 08:14:00
4:34 AM,38.5,38.3,99,30.05,7.0,Calm,Calm,-,N/A,,Overcast,0,2013-04-09 08:34:00
4:53 AM,38.5,38.3,99,30.05,10.0,Calm,Calm,-,N/A,,Overcast,0,2013-04-09 08:53:00
5:14 AM,38.5,38.3,99,30.06,7.0,Calm,Calm,-,N/A,,Overcast,0,2013-04-09 09:14:00
5:34 AM,38.3,38.3,100,30.06,7.0,Calm,Calm,-,N/A,,Overcast,0,2013-04-09 09:34:00
5:53 AM,38.5,38.3,99,30.07,10.0,Calm,Calm,-,N/A,,Overcast,0,2013-04-09 09:53:00
6:14 AM,38.5,38.3,99,30.07,7.0,Calm,Calm,-,N/A,,Overcast,0,2013-04-09 10:14:00
6:33 AM,38.5,38.3,99,30.07,10.0,ENE,3.5,-,N/A,,Overcast,70,2013-04-09 10:33:00
6:54 AM,38.5,38.3,99,30.07,10.0,Calm,Calm,-,N/A,,Overcast,0,2013-04-09 10:54:00
7:13 AM,38.5,38.3,99,30.07,5.0,Calm,Calm,-,N/A,,Overcast,0,2013-04-09 11:13:00
7:34 AM,38.5,38.5,100,30.08,2.0,East,3.5,-,N/A,,Overcast,90,2013-04-09 11:34:00
7:54 AM,39.2,39.0,99,30.09,1.5,East,3.5,-,N/A,,Overcast,100,2013-04-09 11:54:00
8:09 AM,39.4,39.2,99,30.08,2.0,East,3.5,-,N/A,,Overcast,90,2013-04-09 12:09:00
8:39 AM,39.2,39.2,100,30.08,3.0,SE,6.9,-,N/A,,Overcast,140,2013-04-09 12:39:00
8:54 AM,39.7,39.4,99,30.07,3.0,ESE,5.8,-,N/A,,Overcast,120,2013-04-09 12:54:00
9:14 AM,40.1,39.6,98,30.06,3.0,ESE,6.9,-,N/A,,Overcast,110,2013-04-09 13:14:00
9:33 AM,40.1,39.6,98,30.07,4.0,East,8.1,-,N/A,,Overcast,100,2013-04-09 13:33:00
9:54 AM,40.3,39.7,98,30.05,2.5,East,8.1,-,N/A,,Overcast,80,2013-04-09 13:54:00
10:14 AM,40.3,39.7,98,30.06,2.5,ENE,5.8,-,N/A,,Overcast,70,2013-04-09 14:14:00
10:33 AM,40.5,39.9,98,30.06,3.0,ESE,5.8,-,N/A,,Overcast,120,2013-04-09 14:33:00
10:54 AM,40.6,40.1,98,30.05,3.0,ESE,6.9,-,N/A,,Overcast,110,2013-04-09 14:54:00
11:13 AM,41.0,40.3,97,30.06,3.0,East,5.8,-,N/A,,Overcast,80,2013-04-09 15:13:00
11:34 AM,40.8,40.1,97,30.07,3.0,East,4.6,-,N/A,,Overcast,90,2013-04-09 15:34:00
11:54 AM,40.5,40.1,99,30.09,3.0,Calm,Calm,-,N/A,Rain,Light Rain,0,2013-04-09 15:54:00
12:13 PM,40.6,40.1,98,30.06,2.0,East,5.8,-,0.01,Rain,Rain,90,2013-04-09 16:13:00
12:34 PM,41.0,40.3,97,30.07,5.0,ESE,4.6,-,0.02,Rain,Rain,110,2013-04-09 16:34:00
12:54 PM,41.0,40.3,97,30.04,3.0,ENE,4.6,-,0.05,Rain,Rain,70,2013-04-09 16:54:00
1:13 PM,41.2,40.5,97,30.04,2.0,East,4.6,-,0.03,Rain,Rain,80,2013-04-09 17:13:00
1:34 PM,41.9,41.2,97,30.02,3.0,ENE,5.8,-,0.08,Rain,Light Rain,60,2013-04-09 17:34:00
1:54 PM,42.1,41.2,97,30.00,7.0,NE,5.8,-,0.08,,Light Drizzle,40,2013-04-09 17:54:00
2:14 PM,41.9,41.0,97,30.04,7.0,NNW,5.8,-,N/A,Rain,Rain,340,2013-04-09 18:14:00
2:34 PM,41.0,40.1,97,29.99,1.2,East,6.9,-,0.08,Rain,Heavy Rain,100,2013-04-09 18:34:00
2:53 PM,41.0,40.1,97,29.99,2.0,North,4.6,-,0.15,Rain,Rain,350,2013-04-09 18:53:00
3:14 PM,41.4,40.8,98,29.95,4.0,East,8.1,-,0.04,Rain,Light Rain,80,2013-04-09 19:14:00
3:34 PM,41.5,41.0,98,29.95,2.0,ENE,6.9,-,0.07,Rain,Heavy Rain,60,2013-04-09 19:34:00
3:53 PM,41.5,40.8,97,29.89,3.0,ENE,12.7,-,0.10,Rain,Light Rain,70,2013-04-09 19:53:00
4:14 PM,41.9,41.2,97,29.93,1.2,NE,5.8,-,0.06,Rain,Heavy Rain,40,2013-04-09 20:14:00
4:34 PM,41.5,40.8,97,29.95,1.2,Calm,Calm,-,0.21,Rain,Heavy Rain,0,2013-04-09 20:34:00
4:53 PM,41.9,41.0,97,29.95,1.0,North,4.6,-,0.30,,Overcast,360,2013-04-09 20:53:00
5:14 PM,41.4,40.6,97,29.95,10.0,North,5.8,-,N/A,Rain,Rain,360,2013-04-09 21:14:00
5:33 PM,41.2,40.5,97,29.96,3.0,Calm,Calm,-,0.01,Rain,Heavy Rain,0,2013-04-09 21:33:00
5:54 PM,41.2,40.5,97,29.92,5.0,ENE,11.5,-,0.04,Rain,Rain,70,2013-04-09 21:54:00
6:14 PM,41.2,40.5,97,29.94,10.0,ENE,4.6,-,0.01,Rain,Light Rain,60,2013-04-09 22:14:00
6:34 PM,41.4,40.6,97,29.96,7.0,NE,8.1,-,0.02,Rain,Light Rain,40,2013-04-09 22:34:00
6:54 PM,41.2,40.3,97,29.98,10.0,North,3.5,-,0.02,Rain,Light Rain,10,2013-04-09 22:54:00
7:14 PM,41.0,39.7,95,29.98,10.0,NNE,5.8,-,N/A,,Light Drizzle,20,2013-04-09 23:14:00
7:34 PM,40.8,39.7,96,29.99,10.0,NNE,5.8,-,N/A,,Light Drizzle,20,2013-04-09 23:34:00
7:54 PM,40.6,39.6,96,29.98,10.0,NE,5.8,-,N/A,,Light Drizzle,40,2013-04-09 23:54:00
8:14 PM,40.3,39.4,97,29.98,10.0,NE,5.8,-,N/A,Rain,Light Rain,50,2013-04-10 00:14:00
8:34 PM,40.1,39.2,97,29.99,10.0,NE,6.9,-,N/A,,Overcast,50,2013-04-10 00:34:00
8:54 PM,39.6,38.7,97,30.00,10.0,NE,8.1,-,N/A,,Overcast,50,2013-04-10 00:54:00
9:14 PM,39.4,38.3,96,30.01,10.0,NNE,8.1,-,N/A,Rain,Light Rain,30,2013-04-10 01:14:00
9:34 PM,39.2,38.3,97,30.01,10.0,NNE,10.4,-,N/A,,Overcast,30,2013-04-10 01:34:00
9:54 PM,39.2,38.1,96,30.04,10.0,North,4.6,-,N/A,,Overcast,10,2013-04-10 01:54:00
10:14 PM,39.2,38.1,96,30.04,10.0,NNE,5.8,-,N/A,,Overcast,30,2013-04-10 02:14:00
10:54 PM,39.2,37.8,95,30.04,10.0,NNE,8.1,-,N/A,,Drizzle,30,2013-04-10 02:54:00
11:14 PM,38.8,37.8,96,30.05,10.0,NNE,4.6,-,N/A,,Overcast,30,2013-04-10 03:14:00
11:34 PM,38.8,37.8,96,30.03,10.0,NNE,8.1,-,N/A,,Overcast,30,2013-04-10 03:34:00
11:54 PM,38.7,37.8,97,30.02,10.0,ENE,6.9,-,N/A,,Overcast,60,2013-04-10 03:54:00